Chantilly, Virginia
Current Conditions -  °F | °C
As of 11:52 AM on Thursday 23 Oct 2014 (Local Time) from KIAD Reporting Station
Few Clouds Few Clouds  
Wind Chill: 60°   Ceiling: Unl
Heat Index: 60°   Visibility: 10mi
Dew Point: 43°   Wind: 23mph
Humidity: 53%   Direction: 330°NNW
Pressure: 29.9"   Gusts: 30mph
Location:  38.88°N, 77.44°W
Report Text: KIAD 231552Z 33020G26KT 10SM FEW040 16/06 A2990 RMK AO2 PK WND 32029/1536 SLP125 T01560061
Loading
Personal Weather Stations






























Interactive Weather Map
Tropical Storm Tracking
New forecast layout! Learn more

10-Day Weather Forecast

Advertisements
Track Severe Weather on mobile